Time;durP1;ratioP1;P1;durP2;ratioP2;P2;SDS_P1;SDS_P2;PMS_P1;PMS_P2;Temp;Humidity;BMP_temperature;BMP_pressure;BME280_temperature;BME280_humidity;BME280_pressure;Samples;Min_cycle;Max_cycle;Signal;HPM_P1;HPM_P2
2021/03/07 00:00:11;;;;;;;0.80;0.80;;;-2.40;99.90;;;-2.49;100.00;86890.66;5045342;28;20181;-75
2021/03/07 00:02:38;;;;;;;0.80;0.80;;;-2.40;99.90;;;-2.30;100.00;87566.69;5056211;28;20274;-74
2021/03/07 00:05:08;;;;;;;0.80;0.80;;;-2.20;99.90;;;-2.34;100.00;76875.94;5071418;28;20211;-74
2021/03/07 00:07:35;;;;;;;0.80;0.73;;;-2.20;99.90;;;-2.22;100.00;73014.34;5063580;28;20529;-74
2021/03/07 00:10:05;;;;;;;0.80;0.80;;;-2.10;99.90;;;-2.30;100.00;70422.19;5054329;28;20520;-74
2021/03/07 00:12:32;;;;;;;0.80;0.80;;;-2.10;99.90;;;-2.45;100.00;65890.56;5056102;28;20213;-74
2021/03/07 00:15:00;;;;;;;0.90;0.90;;;-2.20;99.90;;;-2.52;100.00;64594.03;5055098;28;20223;-73
2021/03/07 00:17:27;;;;;;;1.40;1.30;;;-2.30;99.90;;;-2.66;100.00;62325.09;5052884;28;20197;-74
2021/03/07 00:19:54;;;;;;;0.80;0.70;;;-2.40;99.90;;;-2.75;100.00;60386.09;5048260;28;20238;-73
2021/03/07 00:22:21;;;;;;;0.80;0.70;;;-2.50;99.90;;;-2.70;100.00;58462.31;5036166;28;20196;-73
2021/03/07 00:24:48;;;;;;;0.80;0.70;;;-2.50;99.90;;;-2.89;100.00;52023.69;5047574;28;20213;-73
2021/03/07 00:27:15;;;;;;;0.80;0.80;;;-2.50;99.90;;;-2.95;100.00;30467.03;5054447;28;20559;-73
2021/03/07 00:29:42;;;;;;;0.93;0.93;;;-2.60;99.90;;;-2.96;100.00;22305.84;5054231;28;20185;-73
2021/03/07 00:32:10;;;;;;;0.80;0.70;;;-2.60;99.90;;;-2.87;100.00;12630.22;5051667;28;20268;-73
2021/03/07 00:34:38;;;;;;;0.80;0.80;;;-2.80;99.90;;;-2.77;100.00;-587.78;5053574;28;20209;-72
2021/03/07 00:37:05;;;;;;;0.90;0.90;;;-2.80;99.90;;;-2.95;100.00;-6781.03;5055346;28;20199;-73
2021/03/07 00:39:32;;;;;;;0.80;0.80;;;-2.70;99.90;;;-3.09;100.00;-10601.34;5054730;28;20247;-72
2021/03/07 00:42:01;;;;;;;0.80;0.80;;;-2.70;99.90;;;-3.06;100.00;-12697.25;5054485;28;20198;-73
2021/03/07 00:44:28;;;;;;;0.80;0.73;;;-2.70;99.90;;;-2.95;100.00;-14938.25;5053653;28;20185;-73
2021/03/07 00:46:56;;;;;;;0.73;0.70;;;-2.80;99.90;;;-3.08;100.00;-17406.19;5047046;28;20644;-73
2021/03/07 00:49:28;;;;;;;1.05;0.95;;;-2.80;99.90;;;-3.05;100.00;-19169.78;5043774;28;20225;-73
2021/03/07 00:51:56;;;;;;;0.80;0.70;;;-2.90;99.90;;;-3.03;100.00;-20317.25;5053795;28;20239;-72
2021/03/07 00:54:24;;;;;;;0.80;0.80;;;-2.90;99.90;;;-2.71;100.00;-20607.09;5055195;28;20647;-73
2021/03/07 00:56:53;;;;;;;0.88;0.85;;;-2.90;99.90;;;-2.94;100.00;-20600.94;5054929;28;20182;-73
2021/03/07 00:59:20;;;;;;;0.77;0.77;;;-2.90;99.90;;;-3.18;100.00;-20594.19;5054009;28;20190;-72
2021/03/07 01:01:47;;;;;;;0.80;0.70;;;-2.90;99.90;;;-3.29;100.00;-20591.25;5054179;28;20236;-73
2021/03/07 01:04:14;;;;;;;0.90;0.90;;;-2.90;99.90;;;-3.03;100.00;-20598.41;5050634;28;20220;-73
2021/03/07 01:06:42;;;;;;;0.90;0.90;;;-3.00;99.90;;;-3.20;100.00;-20593.63;5051142;28;20202;-73
2021/03/07 01:09:10;;;;;;;0.80;0.80;;;-3.10;99.90;;;-3.31;100.00;-20590.53;5051956;28;20620;-73
2021/03/07 01:11:37;;;;;;;0.80;0.80;;;-3.10;99.90;;;-3.37;100.00;-20588.84;5055290;28;20642;-73
2021/03/07 01:14:05;;;;;;;0.80;0.80;;;-3.20;99.90;;;-3.49;100.00;-20585.75;5053663;28;20263;-72
2021/03/07 01:16:33;;;;;;;1.00;1.00;;;-3.20;99.90;;;-3.42;100.00;-20587.72;5054427;28;20217;-73
2021/03/07 01:19:01;;;;;;;0.93;0.93;;;-3.20;99.90;;;-3.29;100.00;-20591.09;5040019;28;20245;-73
2021/03/07 01:21:27;;;;;;;0.90;0.90;;;-3.20;99.90;;;-3.41;100.00;-20588.00;5034007;28;20190;-72
2021/03/07 01:23:55;;;;;;;0.80;0.80;;;-3.30;99.90;;;-3.40;100.00;-20588.16;5034901;28;20213;-73
2021/03/07 01:26:22;;;;;;;1.00;0.98;;;-3.20;99.90;;;-3.56;100.00;-20583.78;5035259;28;20248;-73
2021/03/07 01:28:50;;;;;;;0.70;0.63;;;-3.20;99.90;;;-3.58;100.00;-20583.22;5043129;28;20197;-73
2021/03/07 01:31:18;;;;;;;0.80;0.70;;;-3.20;99.90;;;-3.55;100.00;-20584.06;5050944;28;20301;-72
2021/03/07 01:33:45;;;;;;;0.80;0.70;;;-3.10;99.90;;;-3.56;100.00;-20583.78;5051886;28;20222;-73
2021/03/07 01:36:13;;;;;;;0.77;0.75;;;-3.10;99.90;;;-3.54;100.00;-20584.34;5045006;28;20556;-73
2021/03/07 01:38:40;;;;;;;0.90;0.90;;;-3.20;99.90;;;-3.46;100.00;-20586.47;5054362;28;20182;-72
2021/03/07 01:41:10;;;;;;;0.70;0.60;;;-3.20;99.90;;;-3.44;100.00;-20587.16;5046651;28;20209;-72
2021/03/07 01:43:37;;;;;;;0.90;0.90;;;-3.30;99.90;;;-3.42;100.00;-20587.72;5035144;28;20190;-72
2021/03/07 01:46:04;;;;;;;0.70;0.70;;;-3.30;99.90;;;-3.22;100.00;-20593.06;5044116;28;20190;-73
2021/03/07 01:48:31;;;;;;;0.80;0.80;;;-3.30;99.90;;;-3.23;100.00;-20592.91;5045712;28;20209;-73
2021/03/07 01:50:59;;;;;;;0.80;0.75;;;-3.30;99.90;;;-3.36;100.00;-20589.28;5054088;28;20692;-73
2021/03/07 01:53:27;;;;;;;0.70;0.70;;;-3.20;99.90;;;-3.50;100.00;-20585.34;5052558;28;20218;-73
2021/03/07 01:55:56;;;;;;;1.00;1.00;;;-3.20;99.90;;;-3.57;100.00;-20583.38;5054507;28;20185;-73
2021/03/07 01:58:27;;;;;;;0.80;0.80;;;-3.20;99.90;;;-3.59;100.00;-20582.94;5052858;28;20202;-73
2021/03/07 02:00:56;;;;;;;1.00;0.95;;;-3.30;99.90;;;-3.57;100.00;-20583.38;5048568;28;20298;-72
2021/03/07 02:03:24;;;;;;;0.85;0.85;;;-3.20;99.90;;;-3.63;100.00;-20581.69;5034917;28;20229;-73
2021/03/07 02:05:52;;;;;;;0.77;0.70;;;-3.30;99.90;;;-3.60;100.00;-20582.66;5069276;28;20177;-73
2021/03/07 02:08:21;;;;;;;0.93;0.93;;;-3.40;99.90;;;-3.43;100.00;-20587.44;5052327;28;20193;-73
2021/03/07 02:10:52;;;;;;;0.85;0.85;;;-3.40;99.90;;;-3.34;100.00;-20589.84;5052163;28;20189;-72
2021/03/07 02:13:25;;;;;;;0.82;0.82;;;-3.40;99.90;;;-3.65;100.00;-20581.41;5052733;28;20194;-72
2021/03/07 02:15:57;;;;;;;0.70;0.70;;;-3.40;99.90;;;-3.65;100.00;-20581.25;5051652;28;20197;-73
2021/03/07 02:18:26;;;;;;;0.80;0.70;;;-3.40;99.90;;;-3.49;100.00;-20585.75;5050729;28;20662;-72
2021/03/07 02:20:59;;;;;;;0.80;0.70;;;-3.50;99.90;;;-3.49;100.00;-20585.75;5034141;28;20194;-71
2021/03/07 02:23:33;;;;;;;0.80;0.80;;;-3.50;99.90;;;-3.68;100.00;-20580.44;5050986;28;20189;-73
2021/03/07 02:26:04;;;;;;;0.80;0.80;;;-3.50;99.90;;;-3.63;100.00;-20581.81;5052526;28;20198;-73
2021/03/07 02:28:32;;;;;;;0.80;0.77;;;-3.50;99.90;;;-3.76;100.00;-20578.19;5036793;28;20229;-73
2021/03/07 02:30:59;;;;;;;0.80;0.73;;;-3.50;99.90;;;-3.57;100.00;-20583.38;5043599;28;20295;-73
2021/03/07 02:33:32;;;;;;;1.25;1.15;;;-3.50;99.90;;;-3.82;100.00;-20576.50;5053539;28;20221;-72
2021/03/07 02:36:05;;;;;;;0.80;0.80;;;-3.50;99.90;;;-3.90;100.00;-20574.53;5053471;28;20182;-72
2021/03/07 02:38:37;;;;;;;3.10;2.90;;;-3.50;99.90;;;-3.77;100.00;-20578.03;5052699;28;20189;-73
2021/03/07 02:41:08;;;;;;;0.85;0.85;;;-3.60;99.90;;;-3.82;100.00;-20576.63;5052386;28;20201;-72
2021/03/07 02:43:41;;;;;;;0.98;0.98;;;-3.60;99.90;;;-3.91;100.00;-20574.25;5051874;28;20196;-72
2021/03/07 02:46:13;;;;;;;0.80;0.70;;;-3.60;99.90;;;-3.84;100.00;-20576.06;5051068;28;20197;-72
2021/03/07 02:48:44;;;;;;;1.23;1.13;;;-3.70;99.90;;;-3.72;100.00;-20579.28;5051614;28;20648;-72
2021/03/07 02:51:13;;;;;;;0.80;0.80;;;-3.70;99.90;;;-3.73;100.00;-20579.16;5050960;28;20263;-72
2021/03/07 02:53:42;;;;;;;0.80;0.75;;;-3.80;99.90;;;-3.89;100.00;-20574.81;5052477;28;20202;-72
2021/03/07 02:56:14;;;;;;;0.70;0.70;;;-3.70;99.90;;;-3.85;100.00;-20575.78;5052034;28;20182;-72
2021/03/07 02:58:42;;;;;;;0.77;0.75;;;-3.70;99.90;;;-3.65;100.00;-20581.25;5041133;28;20659;-72
2021/03/07 03:01:15;;;;;;;1.15;1.05;;;-3.80;99.90;;;-3.65;100.00;-20581.25;5042103;28;20194;-73
2021/03/07 03:03:46;;;;;;;0.80;0.80;;;-3.80;99.90;;;-3.76;100.00;-20578.19;5051569;28;20213;-72
2021/03/07 03:06:16;;;;;;;0.80;0.70;;;-3.70;99.90;;;-3.90;100.00;-20574.53;5053208;28;20255;-72
2021/03/07 03:08:49;;;;;;;1.08;1.05;;;-3.70;99.90;;;-3.64;100.00;-20581.56;5051344;28;20232;-71
2021/03/07 03:11:19;;;;;;;0.80;0.80;;;-3.80;99.90;;;-3.51;100.00;-20585.06;5052091;28;20200;-72
2021/03/07 03:13:50;;;;;;;0.70;0.70;;;-3.60;99.90;;;-3.46;100.00;-20586.59;5051678;28;20677;-72
2021/03/07 03:16:23;;;;;;;0.98;0.98;;;-3.50;99.90;;;-3.54;100.00;-20584.34;5060962;28;20688;-73
2021/03/07 03:18:52;;;;;;;0.70;0.70;;;-3.60;99.90;;;-3.66;100.00;-20581.13;5052784;28;20296;-72
2021/03/07 03:21:20;;;;;;;0.90;0.90;;;-3.60;99.90;;;-3.74;100.00;-20578.88;5033401;28;20519;-72
2021/03/07 03:23:48;;;;;;;1.27;1.17;;;-3.60;99.90;;;-3.86;100.00;-20575.38;5031658;28;20188;-73
2021/03/07 03:26:17;;;;;;;0.82;0.82;;;-3.70;99.90;;;-3.97;100.00;-20572.56;5037014;28;20281;-72
2021/03/07 03:28:47;;;;;;;0.70;0.60;;;-3.70;99.90;;;-3.95;100.00;-20572.97;5050249;28;20201;-72
2021/03/07 03:31:14;;;;;;;0.82;0.82;;;-3.80;99.90;;;-3.99;100.00;-20571.84;5056496;28;20196;-71
2021/03/07 03:33:41;;;;;;;0.80;0.80;;;-3.90;99.90;;;-4.11;100.00;-20568.63;5056053;28;20300;-72
2021/03/07 03:36:09;;;;;;;0.90;0.90;;;-3.80;99.90;;;-4.03;100.00;-20570.88;5057044;28;20715;-72
2021/03/07 03:38:40;;;;;;;0.85;0.85;;;-3.90;99.90;;;-3.94;100.00;-20573.41;5053295;28;20285;-72
2021/03/07 03:41:10;;;;;;;0.70;0.70;;;-3.90;99.90;;;-3.88;100.00;-20575.09;5046721;28;20190;-72
2021/03/07 03:43:56;;;;;;;0.80;0.80;;;-4.00;99.90;;;-3.81;100.00;-20576.78;5054394;28;20686;-73
2021/03/07 03:46:25;;;;;;;0.70;0.52;;;-4.00;99.90;;;-3.76;100.00;-20578.19;5056504;28;20710;-72
2021/03/07 03:49:01;;;;;;;2.20;2.10;;;-3.90;99.90;;;-3.86;100.00;-20575.38;5056745;28;20619;-72
2021/03/07 03:51:33;;;;;;;0.70;0.60;;;-3.90;99.90;;;-4.06;100.00;-20570.03;5054206;28;20182;-72
2021/03/07 03:54:02;;;;;;;0.70;0.60;;;-3.90;99.90;;;-4.04;100.00;-20570.59;5054199;28;20198;-72
2021/03/07 03:56:30;;;;;;;0.80;0.70;;;-4.00;99.90;;;-4.06;100.00;-20569.88;5056254;28;20204;-72
2021/03/07 03:58:59;;;;;;;0.80;0.80;;;-4.00;99.90;;;-4.11;100.00;-20568.63;5054397;28;20193;-71
2021/03/07 04:01:26;;;;;;;0.70;0.60;;;-3.90;99.90;;;-4.16;100.00;-20567.22;5053586;28;20193;-72
2021/03/07 04:03:56;;;;;;;0.80;0.70;;;-3.90;99.90;;;-4.17;100.00;-20567.06;5061333;28;20287;-72
2021/03/07 04:06:26;;;;;;;0.80;0.80;;;-4.00;99.90;;;-4.17;100.00;-20566.94;5076549;28;20617;-71
2021/03/07 04:08:54;;;;;;;0.70;0.70;;;-3.90;99.90;;;-4.16;100.00;-20567.22;5035333;28;20248;-72
2021/03/07 04:11:22;;;;;;;0.70;0.60;;;-3.90;99.90;;;-4.03;100.00;-20570.88;5034838;28;20543;-72
2021/03/07 04:13:50;;;;;;;0.80;0.80;;;-4.00;99.90;;;-4.09;100.00;-20569.19;5037186;28;20301;-73
2021/03/07 04:16:19;;;;;;;0.73;0.63;;;-4.10;99.90;;;-4.12;100.00;-20568.34;5038336;28;20263;-72
2021/03/07 04:18:46;;;;;;;0.88;0.88;;;-4.30;99.90;;;-4.09;100.00;-20569.19;5036307;28;20229;-72
2021/03/07 04:21:14;;;;;;;0.70;0.60;;;-4.20;99.90;;;-4.26;100.00;-20564.41;5034829;28;20200;-72
2021/03/07 04:23:42;;;;;;;0.70;0.70;;;-4.10;99.90;;;-4.26;100.00;-20564.41;5055929;28;21048;-72
2021/03/07 04:26:11;;;;;;;0.70;0.60;;;-4.10;99.90;;;-4.13;100.00;-20568.19;5054943;28;20229;-71
2021/03/07 04:28:39;;;;;;;0.80;0.80;;;-4.10;99.90;;;-4.24;100.00;-20564.97;5043245;28;20213;-71
2021/03/07 04:31:07;;;;;;;0.80;0.80;;;-4.20;99.90;;;-4.30;100.00;-20563.28;5055036;28;20257;-72
2021/03/07 04:33:37;;;;;;;0.75;0.70;;;-4.10;99.90;;;-4.38;100.00;-20561.19;5052381;28;20218;-72
2021/03/07 04:36:05;;;;;;;0.70;0.70;;;-4.20;99.90;;;-4.42;100.00;-20560.19;5056872;28;20217;-71
2021/03/07 04:38:33;;;;;;;0.70;0.70;;;-4.20;99.90;;;-4.20;100.00;-20566.09;5034855;28;20198;-72
2021/03/07 04:41:01;;;;;;;0.80;0.70;;;-4.20;99.90;;;-4.04;100.00;-20570.44;5037632;28;20480;-72
2021/03/07 04:43:41;;;;;;;0.70;0.70;;;-4.20;99.90;;;-4.34;100.00;-20562.28;5054339;28;20601;-72
2021/03/07 04:46:09;;;;;;;0.80;0.80;;;-4.20;99.90;;;-4.22;100.00;-20565.66;5054281;28;20275;-72
2021/03/07 04:48:37;;;;;;;0.70;0.60;;;-4.30;99.90;;;-4.29;100.00;-20563.56;5055515;28;20236;-71
2021/03/07 04:51:04;;;;;;;0.70;0.70;;;-4.30;99.90;;;-4.38;100.00;-20561.31;5054741;28;20215;-72
2021/03/07 04:53:31;;;;;;;0.82;0.82;;;-4.30;99.90;;;-4.38;100.00;-20561.31;5053618;28;20649;-71
2021/03/07 04:55:58;;;;;;;0.80;0.70;;;-4.30;99.90;;;-4.42;100.00;-20560.03;5055459;28;20197;-72
2021/03/07 04:58:25;;;;;;;0.90;0.90;;;-4.30;99.90;;;-4.08;100.00;-20569.31;5055809;28;20188;-71
2021/03/07 05:00:52;;;;;;;0.70;0.70;;;-4.30;99.90;;;-4.16;100.00;-20567.34;5054055;28;20711;-70
2021/03/07 05:03:19;;;;;;;0.70;0.50;;;-4.30;99.90;;;-4.02;100.00;-20571.16;5053888;28;20209;-69
2021/03/07 05:05:48;;;;;;;0.90;0.90;;;-4.20;99.90;;;-4.15;100.00;-20567.63;5037004;28;20194;-70
2021/03/07 05:08:16;;;;;;;0.70;0.70;;;-4.20;99.90;;;-4.15;100.00;-20567.50;5033956;28;20232;-70
2021/03/07 05:10:43;;;;;;;0.70;0.70;;;-4.20;99.90;;;-4.02;100.00;-20571.16;5034981;28;20179;-70
2021/03/07 05:13:10;;;;;;;0.70;0.70;;;-4.20;99.90;;;-3.99;100.00;-20571.84;5035513;28;20548;-70
2021/03/07 05:15:38;;;;;;;0.70;0.60;;;-4.20;99.90;;;-4.19;100.00;-20566.38;5047763;28;20280;-70
2021/03/07 05:18:06;;;;;;;0.90;0.90;;;-4.20;99.90;;;-4.33;100.00;-20562.44;5054037;28;20573;-70
2021/03/07 05:20:33;;;;;;;0.70;0.65;;;-4.20;99.90;;;-4.38;100.00;-20561.31;5054830;28;20213;-70
2021/03/07 05:23:02;;;;;;;0.85;0.85;;;-4.30;99.90;;;-4.27;100.00;-20564.13;5054280;28;20181;-70
2021/03/07 05:25:29;;;;;;;0.75;0.70;;;-4.40;99.90;;;-4.19;100.00;-20566.50;5054199;28;20280;-70
2021/03/07 05:27:55;;;;;;;0.95;0.95;;;-4.40;99.90;;;-4.11;100.00;-20568.63;5054791;28;20189;-69
2021/03/07 05:30:24;;;;;;;0.90;0.90;;;-4.30;99.90;;;-4.26;100.00;-20564.41;5053802;28;20188;-70
2021/03/07 05:32:54;;;;;;;0.70;0.60;;;-4.30;99.90;;;-4.38;100.00;-20561.31;5045347;28;20684;-70
2021/03/07 05:35:22;;;;;;;0.85;0.85;;;-4.20;99.90;;;-4.29;100.00;-20563.56;5051373;28;20201;-71
2021/03/07 05:37:49;;;;;;;0.75;0.75;;;-4.40;99.90;;;-4.22;100.00;-20565.53;5054430;28;20537;-70
2021/03/07 05:40:18;;;;;;;0.80;0.80;;;-4.30;99.90;;;-4.23;100.00;-20565.38;5053734;28;20673;-70
2021/03/07 05:42:46;;;;;;;0.80;0.80;;;-4.30;99.90;;;-4.19;100.00;-20566.50;5054400;28;20251;-70
2021/03/07 05:45:24;;;;;;;0.80;0.80;;;-4.30;99.90;;;-4.16;100.00;-20567.22;5051356;28;20198;-70
2021/03/07 05:47:52;;;;;;;0.70;0.70;;;-4.20;99.90;;;-4.19;100.00;-20566.50;5040176;28;20545;-70
2021/03/07 05:50:21;;;;;;;0.85;0.85;;;-4.00;99.90;;;-4.04;100.00;-20570.44;5034370;28;20191;-70
2021/03/07 05:52:50;;;;;;;1.75;1.55;;;-3.90;99.90;;;-4.04;100.00;-20570.59;5034125;28;20274;-70
2021/03/07 05:55:20;;;;;;;1.00;0.90;;;-3.90;99.90;;;-3.97;100.00;-20572.56;5048442;28;20194;-71
2021/03/07 05:57:48;;;;;;;0.70;0.70;;;-4.00;99.90;;;-4.05;100.00;-20570.31;5053233;28;20653;-71
2021/03/07 06:00:18;;;;;;;0.80;0.80;;;-3.90;99.90;;;-4.07;100.00;-20569.75;5049974;28;20272;-70
2021/03/07 06:02:46;;;;;;;0.80;0.80;;;-4.00;99.90;;;-4.12;100.00;-20568.34;5044708;28;20197;-71
2021/03/07 06:05:15;;;;;;;0.90;0.90;;;-4.10;99.90;;;-4.24;100.00;-20564.97;5069721;28;20197;-70
2021/03/07 06:07:43;;;;;;;0.77;0.70;;;-4.10;99.90;;;-4.23;100.00;-20565.38;5073736;28;20195;-70
2021/03/07 06:10:13;;;;;;;0.85;0.85;;;-4.30;99.90;;;-4.12;100.00;-20568.34;5050149;28;20196;-70
2021/03/07 06:12:43;;;;;;;0.85;0.85;;;-4.30;99.90;;;-4.12;100.00;-20568.34;5045604;28;20540;-69
2021/03/07 06:15:12;;;;;;;0.60;0.50;;;-4.30;99.90;;;-4.29;100.00;-20563.56;5044435;28;20217;-69
2021/03/07 06:17:41;;;;;;;0.70;0.63;;;-4.30;99.90;;;-4.22;100.00;-20565.53;5033015;28;20191;-70
2021/03/07 06:20:12;;;;;;;0.70;0.60;;;-4.20;99.90;;;-4.30;100.00;-20563.28;5045404;28;20631;-70
2021/03/07 06:22:53;;;;;;;0.70;0.60;;;-4.30;99.90;;;-4.35;100.00;-20561.88;5045515;28;20182;-70
2021/03/07 06:25:21;;;;;;;0.70;0.70;;;-4.30;99.90;;;-4.33;100.00;-20562.44;5053707;28;20200;-69
2021/03/07 06:27:49;;;;;;;0.77;0.77;;;-4.40;99.90;;;-4.30;100.00;-20563.28;5053005;28;20259;-69
2021/03/07 06:30:19;;;;;;;0.82;0.82;;;-4.50;99.90;;;-4.31;100.00;-20563.00;5052864;28;20177;-68
2021/03/07 06:32:51;;;;;;;0.80;0.70;;;-4.40;99.90;;;-4.39;100.00;-20561.03;5046138;28;20189;-69
2021/03/07 06:35:23;;;;;;;0.80;0.80;;;-4.30;99.90;;;-4.24;100.00;-20564.97;5052233;28;20193;-68
2021/03/07 06:37:56;;;;;;;0.90;0.90;;;-4.30;99.90;;;-4.28;100.00;-20563.84;5053460;28;20658;-68
2021/03/07 06:40:30;;;;;;;0.80;0.77;;;-4.30;99.90;;;-4.30;100.00;-20563.28;5050020;28;20208;-69
2021/03/07 06:42:59;;;;;;;0.80;0.80;;;-4.30;99.90;;;-4.26;100.00;-20564.41;5053446;28;20280;-69
2021/03/07 06:45:37;;;;;;;0.70;0.70;;;-4.20;99.90;;;-4.12;100.00;-20568.34;5040366;28;20197;-68
2021/03/07 06:48:05;;;;;;;1.73;1.63;;;-4.10;99.90;;;-4.13;100.00;-20568.06;5044332;28;20209;-68
2021/03/07 06:50:33;;;;;;;0.80;0.80;;;-4.10;99.90;;;-4.11;100.00;-20568.63;5032765;28;20580;-69
2021/03/07 06:53:01;;;;;;;0.70;0.70;;;-4.10;99.90;;;-4.09;100.00;-20569.19;5045724;28;20264;-69
2021/03/07 06:55:29;;;;;;;0.80;0.77;;;-4.10;99.90;;;-3.95;100.00;-20572.97;5047061;28;20216;-69
2021/03/07 06:57:57;;;;;;;0.80;0.80;;;-4.10;99.90;;;-3.99;100.00;-20572.00;5042604;28;20664;-69
2021/03/07 07:00:37;;;;;;;0.80;0.80;;;-4.00;99.90;;;-3.83;100.00;-20576.22;5049511;28;20232;-69
2021/03/07 07:03:10;;;;;;;0.70;0.70;;;-3.80;99.90;;;-3.64;100.00;-20581.56;5051293;28;20260;-69
2021/03/07 07:05:41;;;;;;;0.73;0.70;;;-3.80;99.90;;;-3.59;100.00;-20582.94;5052825;28;20213;-69
2021/03/07 07:08:11;;;;;;;0.70;0.70;;;-3.80;99.90;;;-3.57;100.00;-20583.50;5050556;28;20182;-69
2021/03/07 07:11:02;;;;;;;0.70;0.60;;;-3.70;99.90;;;-3.42;100.00;-20587.59;5039028;28;20599;-69
2021/03/07 07:13:40;;;;;;;0.95;0.95;;;-3.50;99.90;;;-3.40;100.00;-20588.16;5033230;28;20236;-70
2021/03/07 07:16:21;;;;;;;0.73;0.70;;;-3.50;99.90;;;-3.31;100.00;-20590.53;5050921;28;20704;-70
2021/03/07 07:18:49;;;;;;;0.98;0.98;;;-3.40;99.90;;;-3.25;100.00;-20592.22;5053024;28;20207;-69
2021/03/07 07:21:18;;;;;;;0.70;0.70;;;-3.40;99.90;;;-3.03;100.00;-20598.41;5042897;28;20204;-70
2021/03/07 07:23:48;;;;;;;0.70;0.70;;;-3.30;99.90;;;-2.89;100.00;-20602.03;5052595;28;20243;-70
2021/03/07 07:26:16;;;;;;;0.90;0.90;;;-3.00;99.90;;;-2.87;100.00;-20602.59;5046124;28;20194;-70
2021/03/07 07:28:44;;;;;;;0.82;0.82;;;-3.00;99.90;;;-2.74;100.00;-20606.41;5047918;28;20272;-69
2021/03/07 07:31:16;;;;;;;0.90;0.90;;;-3.00;99.90;;;-2.55;100.00;-20611.59;5052022;28;20704;-70
2021/03/07 07:33:50;;;;;;;0.80;0.80;;;-2.90;99.90;;;-2.49;100.00;-20613.28;5053557;28;20292;-67
2021/03/07 07:36:29;;;;;;;0.70;0.60;;;-2.70;99.90;;;-2.49;100.00;-20613.28;5067167;28;20550;-68
2021/03/07 07:38:58;;;;;;;0.73;0.70;;;-2.50;99.90;;;-2.39;100.00;-20615.94;5053001;28;21529;-69
2021/03/07 07:41:29;;;;;;;0.77;0.75;;;-2.50;99.90;;;-2.18;100.00;-20621.69;5056941;28;20196;-68
2021/03/07 07:43:58;;;;;;;0.90;0.90;;;-2.40;99.90;;;-2.04;100.00;-20625.47;5058060;28;20273;-68
2021/03/07 07:46:27;;;;;;;0.90;0.90;;;-2.30;99.90;;;-1.92;100.00;-20628.84;5058178;28;20670;-67
2021/03/07 07:48:56;;;;;;;0.80;0.70;;;-2.20;99.90;;;-1.80;100.00;-20632.22;5061265;28;20217;-68
2021/03/07 07:51:39;;;;;;;0.80;0.70;;;-2.00;99.90;;;-1.61;100.00;-20637.41;5072873;28;20181;-67
2021/03/07 07:54:08;;;;;;;0.90;0.90;;;-1.80;99.90;;;-1.46;100.00;-20641.59;5062984;28;20206;-67
2021/03/07 07:56:41;;;;;;;1.02;0.98;;;-1.70;99.90;;;-1.25;100.00;-20647.22;5041555;28;20263;-67
2021/03/07 07:59:11;;;;;;;0.70;0.60;;;-1.50;99.90;;;-1.18;100.00;-20649.16;5046757;28;20186;-68
2021/03/07 08:01:56;;;;;;;0.80;0.77;;;-1.40;99.90;;;-1.05;100.00;-20652.69;5047211;28;20198;-67
2021/03/07 08:04:36;;;;;;;0.73;0.70;;;-1.20;99.90;;;-0.79;100.00;-20659.97;5060585;28;20213;-68
2021/03/07 08:07:06;;;;;;;0.77;0.75;;;-1.00;99.90;;;-0.79;100.00;-20659.81;5033308;28;20181;-67
2021/03/07 08:09:40;;;;;;;0.75;0.70;;;-1.00;99.90;;;-0.69;100.00;-20662.63;5051664;28;20213;-67
2021/03/07 08:12:50;;;;;;;0.80;0.70;;;-0.80;99.90;;;-0.46;100.00;-20668.78;5053205;28;20182;-67
2021/03/07 08:15:51;;;;;;;0.90;0.90;;;-0.50;99.90;;;-0.37;100.00;-20671.31;5053285;28;20619;-67
2021/03/07 08:18:20;;;;;;;0.77;0.70;;;-0.50;99.90;;;-0.20;100.00;-20676.06;5055183;28;20225;-68
2021/03/07 08:21:08;;;;;;;0.80;0.70;;;-0.30;99.90;;;0.15;100.00;-20685.59;5055991;28;20200;-68
2021/03/07 08:24:04;;;;;;;0.70;0.60;;;0.20;99.90;;;0.73;100.00;-20701.53;5053434;28;20224;-67
2021/03/07 08:26:52;;;;;;;0.70;0.60;;;0.70;99.90;;;1.17;100.00;-20713.69;5066705;28;20314;-68
2021/03/07 08:29:44;;;;;;;0.70;0.50;;;1.20;99.90;;;1.55;100.00;-20723.91;5074522;28;20246;-69
2021/03/07 08:32:34;;;;;;;0.70;0.60;;;1.40;99.90;;;2.12;100.00;-20739.69;5053121;28;20212;-68
2021/03/07 08:35:19;;;;;;;0.80;0.70;;;1.70;99.90;;;3.08;100.00;-20765.78;5064123;28;20213;-69
2021/03/07 08:38:14;;;;;;;0.70;0.60;;;2.20;99.90;;;3.50;100.00;-20777.22;5050777;28;20647;-68
2021/03/07 08:40:42;;;;;;;0.70;0.70;;;2.70;99.90;;;4.30;100.00;-20799.13;5050287;28;20181;-68
2021/03/07 08:43:52;;;;;;;0.70;0.60;;;2.90;99.90;;;3.83;100.00;-20786.44;5046271;28;20578;-67
2021/03/07 08:46:25;;;;;;;0.70;0.57;;;2.80;99.90;;;4.65;100.00;-20808.59;5044546;28;20432;-67
2021/03/07 08:49:06;;;;;;;0.70;0.60;;;2.80;99.90;;;4.68;100.00;-20809.44;5045377;28;20471;-67
2021/03/07 08:51:36;;;;;;;0.70;0.50;;;2.90;99.90;;;5.27;100.00;-20825.72;5043404;28;20440;-67
2021/03/07 08:54:05;;;;;;;0.70;0.70;;;3.00;99.90;;;5.46;100.00;-20830.88;5045688;28;20982;-69
2021/03/07 08:56:37;;;;;;;0.70;0.60;;;3.30;99.90;;;5.20;100.00;-20823.63;5055357;28;20808;-68
2021/03/07 08:59:04;;;;;;;0.70;0.50;;;3.50;99.90;;;5.27;100.00;-20825.72;5043402;28;20432;-70
2021/03/07 09:01:32;;;;;;;0.70;0.60;;;3.50;99.90;;;6.22;100.00;-20851.44;5046415;28;20452;-67
2021/03/07 09:04:02;;;;;;;0.70;0.50;;;3.70;99.90;;;6.43;100.00;-20857.16;5043514;28;20441;-68
2021/03/07 09:06:32;;;;;;;0.70;0.60;;;3.90;99.90;;;6.22;100.00;-20851.59;5041700;28;20430;-67
2021/03/07 09:09:11;;;;;;;0.80;0.60;;;4.00;99.90;;;6.78;100.00;-20866.88;5044106;28;20492;-68
2021/03/07 09:11:47;;;;;;;0.73;0.63;;;4.20;99.90;;;8.02;100.00;-20900.34;5046865;28;20438;-68
2021/03/07 09:14:17;;;;;;;0.70;0.60;;;4.10;99.90;;;7.53;100.00;-20887.03;5045342;28;20466;-67
2021/03/07 09:16:47;;;;;;;0.80;0.70;;;4.40;99.90;;;8.77;100.00;-20920.75;5045259;28;20448;-67
2021/03/07 09:19:29;;;;;;;0.70;0.60;;;5.00;99.90;;;8.41;100.00;-20911.03;5043997;28;20550;-68
2021/03/07 09:22:18;;;;;;;1.27;1.17;;;5.50;99.90;;;8.09;100.00;-20902.28;5044745;28;20452;-67
2021/03/07 09:25:07;;;;;;;0.80;0.67;;;5.80;99.90;;;8.87;100.00;-20923.50;5054429;28;20974;-67
2021/03/07 09:27:37;;;;;;;0.80;0.70;;;6.00;99.90;;;8.94;100.00;-20925.44;5056129;28;20457;-67
2021/03/07 09:30:10;;;;;;;0.80;0.73;;;6.30;99.90;;;9.32;100.00;-20935.84;5054315;28;20426;-70
2021/03/07 09:32:39;;;;;;;1.73;1.57;;;6.80;99.90;;;9.80;100.00;-20948.72;5064418;28;20436;-67
2021/03/07 09:35:21;;;;;;;0.80;0.70;;;7.10;99.90;;;10.40;100.00;-20965.06;5070519;28;20526;-67
2021/03/07 09:37:58;;;;;;;0.70;0.60;;;7.20;99.90;;;11.32;100.00;-20989.94;5040201;28;20425;-68
2021/03/07 09:40:27;;;;;;;0.80;0.60;;;7.10;99.90;;;10.15;100.00;-20958.41;5043258;28;20437;-67
2021/03/07 09:42:57;;;;;;;1.30;1.20;;;6.80;99.90;;;9.65;100.00;-20944.84;5053081;28;20437;-67
2021/03/07 09:45:25;;;;;;;0.80;0.80;;;7.20;99.90;;;10.07;100.00;-20956.06;5048676;28;20781;-66
2021/03/07 09:48:13;;;;;;;0.70;0.60;;;7.40;99.90;;;11.16;100.00;-20985.53;5036327;28;20546;-68
2021/03/07 09:50:42;;;;;;;0.80;0.80;;;7.50;99.90;;;9.96;100.00;-20953.16;5034524;28;20775;-67
2021/03/07 09:53:11;;;;;;;1.30;1.20;;;7.40;99.90;;;10.75;100.00;-20974.47;5045629;28;20462;-67
2021/03/07 09:55:41;;;;;;;0.80;0.70;;;7.70;99.90;;;11.35;100.00;-20990.78;5053592;28;20460;-68
2021/03/07 09:58:11;;;;;;;0.70;0.60;;;7.50;99.90;;;10.72;100.00;-20973.78;5053929;28;20419;-67
2021/03/07 10:00:45;;;;;;;0.70;0.60;;;7.60;99.90;;;9.60;100.00;-20943.47;5052897;28;20551;-67
2021/03/07 10:03:21;;;;;;;1.23;1.13;;;7.80;99.90;;;10.39;100.00;-20964.78;5043620;28;20464;-68
2021/03/07 10:06:19;;;;;;;2.03;1.83;;;8.00;99.90;;;11.63;100.00;-20998.25;5035129;28;20448;-67
2021/03/07 10:09:04;;;;;;;0.90;0.80;;;8.20;99.90;;;12.03;100.00;-21009.28;5035506;28;20480;-67
2021/03/07 10:11:31;;;;;;;0.80;0.70;;;7.80;99.90;;;11.19;100.00;-20986.34;5053152;28;20486;-66
2021/03/07 10:14:01;;;;;;;0.80;0.60;;;8.00;99.90;;;11.89;100.00;-21005.44;5043942;28;20461;-67
2021/03/07 10:16:32;;;;;;;0.70;0.60;;;8.10;95.70;;;11.70;99.76;-21000.16;5040405;28;20431;-67
2021/03/07 10:19:10;;;;;;;0.70;0.60;;;8.20;90.00;;;11.70;99.49;-21000.31;5039550;28;20473;-66
2021/03/07 10:21:40;;;;;;;0.80;0.70;;;8.30;81.50;;;11.49;100.00;-20994.66;5031208;28;20439;-67
2021/03/07 10:24:17;;;;;;;0.80;0.70;;;8.40;78.50;;;11.39;100.00;-20991.88;5047516;28;20954;-66